sensor_id;sensor_type;location;lat;lon;timestamp;pressure;altitude;pressure_sealevel;temperature;humidity
54248;BME280;40161;39.768;2.722;2023-01-30T00:00:59;102331.69;;;6.20;100.00
54248;BME280;40161;39.768;2.722;2023-01-30T00:03:25;102309.66;;;5.97;100.00
54248;BME280;40161;39.768;2.722;2023-01-30T00:05:51;102349.44;;;6.17;100.00
54248;BME280;40161;39.768;2.722;2023-01-30T00:08:17;102333.69;;;6.14;100.00
54248;BME280;40161;39.768;2.722;2023-01-30T00:10:43;102324.59;;;6.18;100.00
54248;BME280;40161;39.768;2.722;2023-01-30T00:13:10;102320.09;;;6.28;100.00
54248;BME280;40161;39.768;2.722;2023-01-30T00:15:36;102331.91;;;6.23;100.00
54248;BME280;40161;39.768;2.722;2023-01-30T00:18:01;102331.59;;;6.25;100.00
54248;BME280;40161;39.768;2.722;2023-01-30T00:20:27;102336.28;;;6.38;100.00
54248;BME280;40161;39.768;2.722;2023-01-30T00:22:52;102296.34;;;6.28;100.00
54248;BME280;40161;39.768;2.722;2023-01-30T00:25:19;102334.63;;;6.56;100.00
54248;BME280;40161;39.768;2.722;2023-01-30T00:27:44;102320.56;;;6.49;100.00
54248;BME280;40161;39.768;2.722;2023-01-30T00:30:10;102324.09;;;6.49;100.00
54248;BME280;40161;39.768;2.722;2023-01-30T00:32:36;102313.09;;;6.54;100.00
54248;BME280;40161;39.768;2.722;2023-01-30T00:35:01;102330.69;;;6.62;100.00
54248;BME280;40161;39.768;2.722;2023-01-30T00:37:27;102328.59;;;6.73;100.00
54248;BME280;40161;39.768;2.722;2023-01-30T00:39:52;102309.06;;;6.65;100.00
54248;BME280;40161;39.768;2.722;2023-01-30T00:42:19;102320.97;;;6.56;100.00
54248;BME280;40161;39.768;2.722;2023-01-30T00:45:03;102273.06;;;6.50;100.00
54248;BME280;40161;39.768;2.722;2023-01-30T00:47:48;102310.00;;;6.61;100.00
54248;BME280;40161;39.768;2.722;2023-01-30T00:50:14;102297.03;;;6.53;100.00
54248;BME280;40161;39.768;2.722;2023-01-30T00:52:39;102295.09;;;6.53;100.00
54248;BME280;40161;39.768;2.722;2023-01-30T00:55:05;102302.06;;;6.46;100.00
54248;BME280;40161;39.768;2.722;2023-01-30T00:57:35;102307.94;;;6.53;100.00
54248;BME280;40161;39.768;2.722;2023-01-30T01:00:10;102300.47;;;6.58;100.00
54248;BME280;40161;39.768;2.722;2023-01-30T01:02:37;102301.19;;;6.64;100.00
54248;BME280;40161;39.768;2.722;2023-01-30T01:05:04;102293.50;;;6.52;100.00
54248;BME280;40161;39.768;2.722;2023-01-30T01:07:30;102279.19;;;6.28;100.00
54248;BME280;40161;39.768;2.722;2023-01-30T01:09:57;102302.69;;;6.56;100.00
54248;BME280;40161;39.768;2.722;2023-01-30T01:12:23;102305.34;;;6.61;100.00
54248;BME280;40161;39.768;2.722;2023-01-30T01:14:48;102296.31;;;6.47;100.00
54248;BME280;40161;39.768;2.722;2023-01-30T01:17:15;102273.66;;;6.47;100.00
54248;BME280;40161;39.768;2.722;2023-01-30T01:19:40;102284.78;;;6.50;100.00
54248;BME280;40161;39.768;2.722;2023-01-30T01:22:05;102294.19;;;6.44;100.00
54248;BME280;40161;39.768;2.722;2023-01-30T01:24:31;102245.31;;;6.15;100.00
54248;BME280;40161;39.768;2.722;2023-01-30T01:26:57;102282.41;;;5.97;100.00
54248;BME280;40161;39.768;2.722;2023-01-30T01:29:22;102273.78;;;5.71;100.00
54248;BME280;40161;39.768;2.722;2023-01-30T01:31:48;102297.97;;;5.97;100.00
54248;BME280;40161;39.768;2.722;2023-01-30T01:34:13;102308.88;;;5.97;100.00
54248;BME280;40161;39.768;2.722;2023-01-30T01:36:39;102295.88;;;5.88;100.00
54248;BME280;40161;39.768;2.722;2023-01-30T01:39:04;102312.66;;;6.14;100.00
54248;BME280;40161;39.768;2.722;2023-01-30T01:41:30;102288.22;;;6.09;100.00
54248;BME280;40161;39.768;2.722;2023-01-30T01:44:15;102307.47;;;6.32;100.00
54248;BME280;40161;39.768;2.722;2023-01-30T01:49:24;102292.41;;;6.21;100.00
54248;BME280;40161;39.768;2.722;2023-01-30T01:55:06;102307.53;;;6.13;100.00
54248;BME280;40161;39.768;2.722;2023-01-30T01:57:44;102316.34;;;6.24;100.00
54248;BME280;40161;39.768;2.722;2023-01-30T02:00:19;102291.63;;;6.01;100.00
54248;BME280;40161;39.768;2.722;2023-01-30T02:03:04;102313.19;;;6.16;100.00
54248;BME280;40161;39.768;2.722;2023-01-30T02:05:37;102310.00;;;6.28;100.00
54248;BME280;40161;39.768;2.722;2023-01-30T02:10:44;102310.09;;;5.85;100.00
54248;BME280;40161;39.768;2.722;2023-01-30T02:13:13;102314.72;;;5.85;100.00
54248;BME280;40161;39.768;2.722;2023-01-30T02:15:38;102313.34;;;6.06;100.00
54248;BME280;40161;39.768;2.722;2023-01-30T02:18:04;102312.06;;;6.17;100.00
54248;BME280;40161;39.768;2.722;2023-01-30T02:26:24;102276.06;;;6.02;100.00
54248;BME280;40161;39.768;2.722;2023-01-30T02:31:49;102306.94;;;5.97;100.00
54248;BME280;40161;39.768;2.722;2023-01-30T02:44:54;102296.97;;;5.87;100.00
54248;BME280;40161;39.768;2.722;2023-01-30T02:47:28;102305.38;;;5.91;100.00
54248;BME280;40161;39.768;2.722;2023-01-30T02:50:20;102306.63;;;5.80;100.00
54248;BME280;40161;39.768;2.722;2023-01-30T02:52:47;102253.75;;;5.43;100.00
54248;BME280;40161;39.768;2.722;2023-01-30T02:55:22;102286.22;;;5.77;100.00
54248;BME280;40161;39.768;2.722;2023-01-30T02:57:48;102292.22;;;5.79;100.00
54248;BME280;40161;39.768;2.722;2023-01-30T03:00:23;102309.72;;;5.73;100.00
54248;BME280;40161;39.768;2.722;2023-01-30T03:06:15;102279.75;;;5.73;100.00
54248;BME280;40161;39.768;2.722;2023-01-30T03:12:02;102310.78;;;5.96;100.00
54248;BME280;40161;39.768;2.722;2023-01-30T03:14:54;102309.06;;;5.81;100.00
54248;BME280;40161;39.768;2.722;2023-01-30T03:17:23;102317.91;;;5.92;100.00
54248;BME280;40161;39.768;2.722;2023-01-30T03:19:52;102305.47;;;5.86;100.00
54248;BME280;40161;39.768;2.722;2023-01-30T03:22:20;102292.63;;;5.67;100.00
54248;BME280;40161;39.768;2.722;2023-01-30T03:24:46;102272.47;;;5.50;100.00
54248;BME280;40161;39.768;2.722;2023-01-30T03:27:14;102307.38;;;5.85;100.00
54248;BME280;40161;39.768;2.722;2023-01-30T03:29:39;102305.97;;;5.69;100.00
54248;BME280;40161;39.768;2.722;2023-01-30T03:32:05;102256.41;;;5.29;100.00
54248;BME280;40161;39.768;2.722;2023-01-30T03:34:31;102298.84;;;5.54;100.00
54248;BME280;40161;39.768;2.722;2023-01-30T03:36:57;102306.56;;;5.66;100.00
54248;BME280;40161;39.768;2.722;2023-01-30T03:39:23;102287.84;;;5.59;100.00
54248;BME280;40161;39.768;2.722;2023-01-30T03:41:50;102262.06;;;5.33;100.00
54248;BME280;40161;39.768;2.722;2023-01-30T03:44:15;102292.06;;;5.52;100.00
54248;BME280;40161;39.768;2.722;2023-01-30T03:46:41;102293.53;;;5.44;100.00
54248;BME280;40161;39.768;2.722;2023-01-30T03:49:06;102303.84;;;5.66;100.00
54248;BME280;40161;39.768;2.722;2023-01-30T03:51:32;102310.63;;;5.68;100.00
54248;BME280;40161;39.768;2.722;2023-01-30T03:53:57;102291.09;;;5.42;100.00
54248;BME280;40161;39.768;2.722;2023-01-30T03:56:23;102286.59;;;5.52;100.00
54248;BME280;40161;39.768;2.722;2023-01-30T03:58:48;102303.66;;;5.57;100.00
54248;BME280;40161;39.768;2.722;2023-01-30T04:01:14;102310.75;;;5.77;100.00
54248;BME280;40161;39.768;2.722;2023-01-30T04:03:39;102301.03;;;5.71;100.00
54248;BME280;40161;39.768;2.722;2023-01-30T04:06:05;102303.53;;;5.67;100.00
54248;BME280;40161;39.768;2.722;2023-01-30T04:08:31;102298.09;;;5.48;100.00
54248;BME280;40161;39.768;2.722;2023-01-30T04:10:56;102297.88;;;5.45;100.00
54248;BME280;40161;39.768;2.722;2023-01-30T04:13:22;102299.41;;;5.51;100.00
54248;BME280;40161;39.768;2.722;2023-01-30T04:15:48;102315.75;;;5.51;100.00
54248;BME280;40161;39.768;2.722;2023-01-30T04:18:13;102312.44;;;5.54;100.00
54248;BME280;40161;39.768;2.722;2023-01-30T04:20:39;102292.56;;;5.35;100.00
54248;BME280;40161;39.768;2.722;2023-01-30T04:23:06;102329.91;;;5.29;100.00
54248;BME280;40161;39.768;2.722;2023-01-30T04:25:31;102315.22;;;5.06;100.00
54248;BME280;40161;39.768;2.722;2023-01-30T04:27:57;102306.75;;;5.08;100.00
54248;BME280;40161;39.768;2.722;2023-01-30T04:30:22;102314.22;;;5.21;100.00
54248;BME280;40161;39.768;2.722;2023-01-30T04:32:48;102280.78;;;4.96;100.00
54248;BME280;40161;39.768;2.722;2023-01-30T04:35:14;102291.53;;;5.07;100.00
54248;BME280;40161;39.768;2.722;2023-01-30T04:37:39;102313.13;;;5.22;100.00
54248;BME280;40161;39.768;2.722;2023-01-30T04:40:05;102279.41;;;4.99;100.00
54248;BME280;40161;39.768;2.722;2023-01-30T04:42:31;102286.22;;;4.72;100.00
54248;BME280;40161;39.768;2.722;2023-01-30T04:44:57;102304.44;;;4.72;100.00
54248;BME280;40161;39.768;2.722;2023-01-30T04:47:22;102324.00;;;4.74;100.00
54248;BME280;40161;39.768;2.722;2023-01-30T04:49:48;102297.38;;;4.71;100.00
54248;BME280;40161;39.768;2.722;2023-01-30T04:52:13;102315.97;;;4.88;100.00
54248;BME280;40161;39.768;2.722;2023-01-30T04:54:39;102318.00;;;5.01;100.00
54248;BME280;40161;39.768;2.722;2023-01-30T04:57:04;102314.91;;;4.84;100.00
54248;BME280;40161;39.768;2.722;2023-01-30T04:59:30;102325.75;;;4.89;100.00
54248;BME280;40161;39.768;2.722;2023-01-30T05:01:55;102317.09;;;4.82;100.00
54248;BME280;40161;39.768;2.722;2023-01-30T05:04:21;102317.09;;;4.82;100.00
54248;BME280;40161;39.768;2.722;2023-01-30T05:06:47;102339.13;;;5.09;100.00
54248;BME280;40161;39.768;2.722;2023-01-30T05:09:13;102321.69;;;4.57;100.00
54248;BME280;40161;39.768;2.722;2023-01-30T05:11:38;102326.16;;;4.48;100.00
54248;BME280;40161;39.768;2.722;2023-01-30T05:14:04;102334.84;;;4.79;100.00
54248;BME280;40161;39.768;2.722;2023-01-30T05:16:30;102308.13;;;4.81;100.00
54248;BME280;40161;39.768;2.722;2023-01-30T05:18:56;102318.69;;;4.88;100.00
54248;BME280;40161;39.768;2.722;2023-01-30T05:21:24;102304.09;;;4.49;100.00
54248;BME280;40161;39.768;2.722;2023-01-30T05:23:51;102334.59;;;4.75;100.00
54248;BME280;40161;39.768;2.722;2023-01-30T05:26:18;102320.63;;;4.58;100.00
54248;BME280;40161;39.768;2.722;2023-01-30T05:28:50;102316.09;;;4.48;100.00
54248;BME280;40161;39.768;2.722;2023-01-30T05:31:16;102326.06;;;4.58;100.00
54248;BME280;40161;39.768;2.722;2023-01-30T05:33:41;102333.44;;;4.82;100.00
54248;BME280;40161;39.768;2.722;2023-01-30T05:36:13;102295.69;;;4.51;100.00
54248;BME280;40161;39.768;2.722;2023-01-30T05:38:39;102309.59;;;4.44;100.00
54248;BME280;40161;39.768;2.722;2023-01-30T05:41:06;102330.06;;;4.66;100.00
54248;BME280;40161;39.768;2.722;2023-01-30T05:43:33;102341.44;;;4.68;100.00
54248;BME280;40161;39.768;2.722;2023-01-30T05:46:00;102299.16;;;4.22;100.00
54248;BME280;40161;39.768;2.722;2023-01-30T05:48:27;102332.50;;;4.33;100.00
54248;BME280;40161;39.768;2.722;2023-01-30T05:50:55;102317.78;;;4.39;100.00
54248;BME280;40161;39.768;2.722;2023-01-30T05:53:22;102337.13;;;4.67;100.00
54248;BME280;40161;39.768;2.722;2023-01-30T05:55:59;102359.06;;;4.75;100.00
54248;BME280;40161;39.768;2.722;2023-01-30T05:58:26;102343.09;;;4.69;100.00
54248;BME280;40161;39.768;2.722;2023-01-30T06:00:52;102320.91;;;4.22;100.00
54248;BME280;40161;39.768;2.722;2023-01-30T06:03:18;102355.91;;;4.63;100.00
54248;BME280;40161;39.768;2.722;2023-01-30T06:05:43;102345.03;;;4.63;100.00
54248;BME280;40161;39.768;2.722;2023-01-30T06:08:09;102374.00;;;4.78;100.00
54248;BME280;40161;39.768;2.722;2023-01-30T06:10:35;102379.78;;;4.71;100.00
54248;BME280;40161;39.768;2.722;2023-01-30T06:13:00;102345.44;;;4.51;100.00
54248;BME280;40161;39.768;2.722;2023-01-30T06:15:26;102367.13;;;4.86;100.00
54248;BME280;40161;39.768;2.722;2023-01-30T06:17:52;102364.75;;;4.79;100.00
54248;BME280;40161;39.768;2.722;2023-01-30T06:20:18;102376.00;;;4.96;100.00
54248;BME280;40161;39.768;2.722;2023-01-30T06:22:43;102378.88;;;4.81;100.00
54248;BME280;40161;39.768;2.722;2023-01-30T06:25:09;102375.56;;;4.84;100.00
54248;BME280;40161;39.768;2.722;2023-01-30T06:27:35;102364.03;;;4.68;100.00
54248;BME280;40161;39.768;2.722;2023-01-30T06:30:02;102368.69;;;4.63;100.00
54248;BME280;40161;39.768;2.722;2023-01-30T06:32:28;102374.16;;;4.63;100.00
54248;BME280;40161;39.768;2.722;2023-01-30T06:34:53;102378.78;;;4.62;100.00
54248;BME280;40161;39.768;2.722;2023-01-30T06:37:19;102366.38;;;4.51;100.00
54248;BME280;40161;39.768;2.722;2023-01-30T06:39:45;102387.41;;;4.69;100.00
54248;BME280;40161;39.768;2.722;2023-01-30T06:42:10;102390.28;;;4.83;100.00
54248;BME280;40161;39.768;2.722;2023-01-30T06:44:37;102395.72;;;4.83;100.00
54248;BME280;40161;39.768;2.722;2023-01-30T06:47:02;102379.72;;;4.76;100.00
54248;BME280;40161;39.768;2.722;2023-01-30T06:49:28;102395.41;;;4.85;100.00
54248;BME280;40161;39.768;2.722;2023-01-30T06:51:55;102396.41;;;4.99;100.00
54248;BME280;40161;39.768;2.722;2023-01-30T06:54:20;102389.72;;;4.86;100.00
54248;BME280;40161;39.768;2.722;2023-01-30T06:56:46;102398.09;;;4.90;100.00
54248;BME280;40161;39.768;2.722;2023-01-30T06:59:11;102391.56;;;4.91;100.00
54248;BME280;40161;39.768;2.722;2023-01-30T07:01:37;102400.03;;;4.89;100.00
54248;BME280;40161;39.768;2.722;2023-01-30T07:04:03;102396.09;;;5.00;100.00
54248;BME280;40161;39.768;2.722;2023-01-30T07:06:29;102389.47;;;4.83;100.00
54248;BME280;40161;39.768;2.722;2023-01-30T07:08:55;102400.59;;;4.86;100.00
54248;BME280;40161;39.768;2.722;2023-01-30T07:11:25;102379.00;;;4.66;100.00
54248;BME280;40161;39.768;2.722;2023-01-30T07:13:51;102411.41;;;4.91;100.00
54248;BME280;40161;39.768;2.722;2023-01-30T07:16:16;102410.28;;;4.97;100.00
54248;BME280;40161;39.768;2.722;2023-01-30T07:18:42;102377.31;;;4.75;100.00
54248;BME280;40161;39.768;2.722;2023-01-30T07:21:08;102405.78;;;4.83;100.00
54248;BME280;40161;39.768;2.722;2023-01-30T07:23:33;102413.88;;;4.93;100.00
54248;BME280;40161;39.768;2.722;2023-01-30T07:26:03;102420.91;;;4.94;100.00
54248;BME280;40161;39.768;2.722;2023-01-30T07:28:30;102422.84;;;4.93;100.00
54248;BME280;40161;39.768;2.722;2023-01-30T07:30:59;102423.41;;;4.90;100.00
54248;BME280;40161;39.768;2.722;2023-01-30T07:33:24;102426.06;;;4.95;100.00
54248;BME280;40161;39.768;2.722;2023-01-30T07:35:51;102399.03;;;4.46;100.00
54248;BME280;40161;39.768;2.722;2023-01-30T07:38:16;102438.13;;;4.55;100.00
54248;BME280;40161;39.768;2.722;2023-01-30T07:40:42;102419.78;;;4.32;100.00
54248;BME280;40161;39.768;2.722;2023-01-30T07:43:13;102447.94;;;4.51;100.00
54248;BME280;40161;39.768;2.722;2023-01-30T07:45:44;102450.03;;;4.59;100.00
54248;BME280;40161;39.768;2.722;2023-01-30T07:48:11;102429.97;;;4.50;100.00
54248;BME280;40161;39.768;2.722;2023-01-30T07:50:37;102457.25;;;4.79;100.00
54248;BME280;40161;39.768;2.722;2023-01-30T07:53:04;102451.81;;;4.79;100.00
54248;BME280;40161;39.768;2.722;2023-01-30T07:55:30;102434.47;;;4.70;100.00
54248;BME280;40161;39.768;2.722;2023-01-30T07:57:56;102451.75;;;4.84;100.00
54248;BME280;40161;39.768;2.722;2023-01-30T08:00:22;102458.31;;;4.78;100.00
54248;BME280;40161;39.768;2.722;2023-01-30T08:02:47;102458.81;;;4.85;100.00
54248;BME280;40161;39.768;2.722;2023-01-30T08:05:13;102468.72;;;4.71;100.00
54248;BME280;40161;39.768;2.722;2023-01-30T08:07:38;102470.34;;;4.33;100.00
54248;BME280;40161;39.768;2.722;2023-01-30T08:10:05;102451.50;;;4.46;100.00
54248;BME280;40161;39.768;2.722;2023-01-30T08:12:31;102466.38;;;4.54;100.00
54248;BME280;40161;39.768;2.722;2023-01-30T08:14:57;102478.84;;;4.60;100.00
54248;BME280;40161;39.768;2.722;2023-01-30T08:17:22;102481.75;;;4.74;100.00
54248;BME280;40161;39.768;2.722;2023-01-30T08:19:48;102468.19;;;4.69;100.00
54248;BME280;40161;39.768;2.722;2023-01-30T08:22:15;102481.22;;;4.72;100.00
54248;BME280;40161;39.768;2.722;2023-01-30T08:24:41;102472.59;;;4.65;100.00
54248;BME280;40161;39.768;2.722;2023-01-30T08:27:08;102447.16;;;4.45;100.00
54248;BME280;40161;39.768;2.722;2023-01-30T08:29:33;102436.03;;;4.42;100.00
54248;BME280;40161;39.768;2.722;2023-01-30T08:32:00;102495.59;;;4.78;100.00
54248;BME280;40161;39.768;2.722;2023-01-30T08:34:25;102498.13;;;4.69;100.00
54248;BME280;40161;39.768;2.722;2023-01-30T08:36:51;102478.09;;;4.55;100.00
54248;BME280;40161;39.768;2.722;2023-01-30T08:39:17;102505.09;;;4.80;100.00
54248;BME280;40161;39.768;2.722;2023-01-30T08:41:43;102513.47;;;4.89;100.00
54248;BME280;40161;39.768;2.722;2023-01-30T08:44:09;102501.56;;;4.80;100.00
54248;BME280;40161;39.768;2.722;2023-01-30T08:46:35;102524.06;;;4.90;100.00
54248;BME280;40161;39.768;2.722;2023-01-30T08:49:00;102523.75;;;4.97;100.00
54248;BME280;40161;39.768;2.722;2023-01-30T08:51:26;102528.47;;;4.86;100.00
54248;BME280;40161;39.768;2.722;2023-01-30T08:53:51;102535.56;;;4.82;100.00
54248;BME280;40161;39.768;2.722;2023-01-30T08:56:17;102517.28;;;4.88;100.00
54248;BME280;40161;39.768;2.722;2023-01-30T08:58:42;102525.16;;;4.89;100.00
54248;BME280;40161;39.768;2.722;2023-01-30T09:01:09;102492.13;;;4.72;100.00
54248;BME280;40161;39.768;2.722;2023-01-30T09:03:35;102516.69;;;4.96;100.00
54248;BME280;40161;39.768;2.722;2023-01-30T09:06:01;102537.28;;;5.07;100.00
54248;BME280;40161;39.768;2.722;2023-01-30T09:08:26;102522.81;;;5.12;100.00
54248;BME280;40161;39.768;2.722;2023-01-30T09:10:56;102538.53;;;5.20;100.00
54248;BME280;40161;39.768;2.722;2023-01-30T09:13:22;102538.44;;;5.30;100.00
54248;BME280;40161;39.768;2.722;2023-01-30T09:16:06;102557.28;;;5.21;100.00
54248;BME280;40161;39.768;2.722;2023-01-30T09:18:32;102540.88;;;5.32;100.00
54248;BME280;40161;39.768;2.722;2023-01-30T09:21:03;102547.34;;;5.41;100.00
54248;BME280;40161;39.768;2.722;2023-01-30T09:23:29;102539.41;;;5.44;100.00
54248;BME280;40161;39.768;2.722;2023-01-30T09:25:56;102549.66;;;5.53;100.00
54248;BME280;40161;39.768;2.722;2023-01-30T09:28:22;102542.19;;;5.63;100.00
54248;BME280;40161;39.768;2.722;2023-01-30T09:30:47;102527.75;;;5.68;100.00
54248;BME280;40161;39.768;2.722;2023-01-30T09:33:13;102560.81;;;5.80;100.00
54248;BME280;40161;39.768;2.722;2023-01-30T09:35:41;102555.00;;;5.92;100.00
54248;BME280;40161;39.768;2.722;2023-01-30T09:38:07;102543.00;;;5.93;100.00
54248;BME280;40161;39.768;2.722;2023-01-30T09:40:36;102557.47;;;6.12;100.00
54248;BME280;40161;39.768;2.722;2023-01-30T09:43:30;102532.00;;;6.03;100.00
54248;BME280;40161;39.768;2.722;2023-01-30T09:48:53;102559.16;;;6.32;100.00
54248;BME280;40161;39.768;2.722;2023-01-30T09:51:42;102536.84;;;6.30;100.00
54248;BME280;40161;39.768;2.722;2023-01-30T09:54:21;102560.19;;;6.36;100.00
54248;BME280;40161;39.768;2.722;2023-01-30T09:57:21;102577.63;;;6.59;100.00
54248;BME280;40161;39.768;2.722;2023-01-30T10:00:02;102571.22;;;6.69;100.00
54248;BME280;40161;39.768;2.722;2023-01-30T10:05:33;102574.69;;;6.75;100.00
54248;BME280;40161;39.768;2.722;2023-01-30T10:14:56;102578.69;;;7.15;100.00
54248;BME280;40161;39.768;2.722;2023-01-30T10:18:06;102580.78;;;7.23;100.00
54248;BME280;40161;39.768;2.722;2023-01-30T10:26:43;102540.88;;;7.41;100.00
54248;BME280;40161;39.768;2.722;2023-01-30T10:31:45;102562.16;;;7.72;100.00
54248;BME280;40161;39.768;2.722;2023-01-30T10:34:32;102561.47;;;7.80;100.00
54248;BME280;40161;39.768;2.722;2023-01-30T10:37:19;102525.00;;;7.71;100.00
54248;BME280;40161;39.768;2.722;2023-01-30T10:40:40;102569.06;;;8.11;100.00
54248;BME280;40161;39.768;2.722;2023-01-30T10:45:14;102544.97;;;8.26;100.00
54248;BME280;40161;39.768;2.722;2023-01-30T10:47:46;102554.28;;;8.39;100.00
54248;BME280;40161;39.768;2.722;2023-01-30T10:50:41;102514.97;;;8.21;100.00
54248;BME280;40161;39.768;2.722;2023-01-30T10:53:16;102544.13;;;8.53;100.00
54248;BME280;40161;39.768;2.722;2023-01-30T10:55:47;102558.47;;;8.73;100.00
54248;BME280;40161;39.768;2.722;2023-01-30T10:58:23;102527.16;;;8.65;99.43
54248;BME280;40161;39.768;2.722;2023-01-30T11:01:06;102541.50;;;8.85;97.11
54248;BME280;40161;39.768;2.722;2023-01-30T11:03:45;102501.22;;;8.63;95.52
54248;BME280;40161;39.768;2.722;2023-01-30T11:06:22;102549.84;;;9.02;94.34
54248;BME280;40161;39.768;2.722;2023-01-30T11:08:49;102548.28;;;9.10;92.53
54248;BME280;40161;39.768;2.722;2023-01-30T11:11:28;102476.16;;;8.69;90.05
54248;BME280;40161;39.768;2.722;2023-01-30T11:14:05;102525.31;;;9.19;87.12
54248;BME280;40161;39.768;2.722;2023-01-30T11:16:40;102514.66;;;9.18;86.31
54248;BME280;40161;39.768;2.722;2023-01-30T11:19:08;102512.19;;;9.39;85.44
54248;BME280;40161;39.768;2.722;2023-01-30T11:21:34;102499.00;;;9.41;85.52
54248;BME280;40161;39.768;2.722;2023-01-30T11:24:17;102507.63;;;9.57;84.68
54248;BME280;40161;39.768;2.722;2023-01-30T11:26:44;102482.13;;;9.56;83.78
54248;BME280;40161;39.768;2.722;2023-01-30T11:29:31;102449.69;;;9.49;83.03
54248;BME280;40161;39.768;2.722;2023-01-30T11:32:03;102456.53;;;9.61;80.85
54248;BME280;40161;39.768;2.722;2023-01-30T11:34:28;102418.56;;;9.45;80.51
54248;BME280;40161;39.768;2.722;2023-01-30T11:37:12;102483.06;;;9.91;80.76
54248;BME280;40161;39.768;2.722;2023-01-30T11:39:47;102443.50;;;9.75;79.36
54248;BME280;40161;39.768;2.722;2023-01-30T11:42:18;102463.59;;;10.02;80.04
54248;BME280;40161;39.768;2.722;2023-01-30T11:44:44;102463.91;;;10.09;78.80
54248;BME280;40161;39.768;2.722;2023-01-30T11:47:26;102453.56;;;10.06;78.82
54248;BME280;40161;39.768;2.722;2023-01-30T11:49:55;102481.19;;;10.18;77.58
54248;BME280;40161;39.768;2.722;2023-01-30T11:52:25;102463.28;;;10.12;76.90
54248;BME280;40161;39.768;2.722;2023-01-30T11:54:56;102475.22;;;10.25;77.14
54248;BME280;40161;39.768;2.722;2023-01-30T11:57:25;102467.66;;;10.30;78.28
54248;BME280;40161;39.768;2.722;2023-01-30T12:00:00;102457.34;;;10.27;76.44
54248;BME280;40161;39.768;2.722;2023-01-30T12:02:32;102457.00;;;10.29;75.84
54248;BME280;40161;39.768;2.722;2023-01-30T12:07:50;102450.34;;;10.21;77.04
54248;BME280;40161;39.768;2.722;2023-01-30T12:10:29;102450.06;;;10.22;75.81
54248;BME280;40161;39.768;2.722;2023-01-30T12:12:59;102441.19;;;10.34;76.37
54248;BME280;40161;39.768;2.722;2023-01-30T12:15:28;102370.97;;;9.98;76.21
54248;BME280;40161;39.768;2.722;2023-01-30T12:20:55;102388.91;;;10.31;75.05
54248;BME280;40161;39.768;2.722;2023-01-30T12:23:42;102432.16;;;10.60;73.44
54248;BME280;40161;39.768;2.722;2023-01-30T12:26:29;102399.53;;;10.58;74.45
54248;BME280;40161;39.768;2.722;2023-01-30T12:31:36;102400.81;;;10.61;72.13
54248;BME280;40161;39.768;2.722;2023-01-30T12:34:03;102417.72;;;10.80;71.76
54248;BME280;40161;39.768;2.722;2023-01-30T12:36:33;102415.63;;;10.86;73.02
54248;BME280;40161;39.768;2.722;2023-01-30T12:47:47;102413.19;;;10.93;72.07
54248;BME280;40161;39.768;2.722;2023-01-30T12:55:48;102405.59;;;10.99;73.59
54248;BME280;40161;39.768;2.722;2023-01-30T13:04:27;102385.22;;;11.00;72.86
54248;BME280;40161;39.768;2.722;2023-01-30T13:12:50;102388.59;;;10.97;71.86
54248;BME280;40161;39.768;2.722;2023-01-30T13:15:55;102388.59;;;10.97;72.00
54248;BME280;40161;39.768;2.722;2023-01-30T13:18:38;102368.34;;;10.72;71.10
54248;BME280;40161;39.768;2.722;2023-01-30T13:21:14;102371.38;;;10.79;70.92
54248;BME280;40161;39.768;2.722;2023-01-30T13:26:36;102365.75;;;10.75;72.78
54248;BME280;40161;39.768;2.722;2023-01-30T13:29:31;102371.56;;;10.74;71.44
54248;BME280;40161;39.768;2.722;2023-01-30T13:32:03;102350.59;;;10.60;71.95
54248;BME280;40161;39.768;2.722;2023-01-30T13:34:34;102350.00;;;10.46;70.54
54248;BME280;40161;39.768;2.722;2023-01-30T13:39:47;102352.19;;;10.61;71.19
54248;BME280;40161;39.768;2.722;2023-01-30T13:45:03;102355.25;;;10.68;70.81
54248;BME280;40161;39.768;2.722;2023-01-30T13:52:42;102317.69;;;10.34;71.49
54248;BME280;40161;39.768;2.722;2023-01-30T13:58:25;102355.75;;;10.71;71.11
54248;BME280;40161;39.768;2.722;2023-01-30T14:00:56;102348.47;;;10.66;72.24
54248;BME280;40161;39.768;2.722;2023-01-30T14:03:34;102338.16;;;10.54;70.22
54248;BME280;40161;39.768;2.722;2023-01-30T14:06:02;102362.19;;;10.75;69.70
54248;BME280;40161;39.768;2.722;2023-01-30T14:11:47;102370.09;;;10.76;70.06
54248;BME280;40161;39.768;2.722;2023-01-30T14:14:24;102371.72;;;10.77;70.14
54248;BME280;40161;39.768;2.722;2023-01-30T14:16:53;102363.00;;;10.66;70.39
54248;BME280;40161;39.768;2.722;2023-01-30T14:19:28;102373.19;;;10.66;69.49
54248;BME280;40161;39.768;2.722;2023-01-30T14:21:57;102366.44;;;10.63;70.20
54248;BME280;40161;39.768;2.722;2023-01-30T14:24:23;102350.28;;;10.53;71.33
54248;BME280;40161;39.768;2.722;2023-01-30T14:40:00;102377.44;;;10.37;69.86
54248;BME280;40161;39.768;2.722;2023-01-30T14:42:30;102360.47;;;10.35;70.60
54248;BME280;40161;39.768;2.722;2023-01-30T14:47:22;102329.50;;;10.26;70.58
54248;BME280;40161;39.768;2.722;2023-01-30T14:49:48;102366.75;;;10.44;70.70
54248;BME280;40161;39.768;2.722;2023-01-30T14:54:54;102354.34;;;10.38;70.96
54248;BME280;40161;39.768;2.722;2023-01-30T14:57:25;102331.59;;;10.12;70.89
54248;BME280;40161;39.768;2.722;2023-01-30T15:00:03;102362.59;;;10.30;70.08
54248;BME280;40161;39.768;2.722;2023-01-30T15:02:39;102334.97;;;10.17;69.62
54248;BME280;40161;39.768;2.722;2023-01-30T15:05:17;102358.22;;;10.20;71.76
54248;BME280;40161;39.768;2.722;2023-01-30T15:07:50;102343.84;;;10.14;71.22
54248;BME280;40161;39.768;2.722;2023-01-30T15:10:44;102350.66;;;10.26;71.88
54248;BME280;40161;39.768;2.722;2023-01-30T15:32:20;102331.59;;;10.03;69.12